sensor_id;sensor_type;location;lat;lon;timestamp;pressure;altitude;pressure_sealevel;temperature;humidity
4273;BME280;63887;53.656;9.810;2023-05-19T00:00:09;102876.00;;;7.04;78.48
4273;BME280;63887;53.656;9.810;2023-05-19T00:02:38;102872.50;;;7.05;78.81
4273;BME280;63887;53.656;9.810;2023-05-19T00:05:05;102874.31;;;6.91;79.85
4273;BME280;63887;53.656;9.810;2023-05-19T00:07:32;102869.06;;;6.97;79.64
4273;BME280;63887;53.656;9.810;2023-05-19T00:09:58;102874.38;;;6.86;79.52
4273;BME280;63887;53.656;9.810;2023-05-19T00:12:25;102874.34;;;6.89;80.13
4273;BME280;63887;53.656;9.810;2023-05-19T00:14:52;102873.56;;;6.70;80.10
4273;BME280;63887;53.656;9.810;2023-05-19T00:17:20;102871.81;;;6.68;80.25
4273;BME280;63887;53.656;9.810;2023-05-19T00:19:46;102864.78;;;6.83;79.90
4273;BME280;63887;53.656;9.810;2023-05-19T00:22:13;102867.44;;;6.77;78.83
4273;BME280;63887;53.656;9.810;2023-05-19T00:24:39;102867.34;;;6.94;77.98
4273;BME280;63887;53.656;9.810;2023-05-19T00:27:05;102868.41;;;6.53;81.09
4273;BME280;63887;53.656;9.810;2023-05-19T00:29:31;102870.94;;;6.69;80.05
4273;BME280;63887;53.656;9.810;2023-05-19T00:31:58;102863.97;;;6.75;79.46
4273;BME280;63887;53.656;9.810;2023-05-19T00:34:25;102857.97;;;6.58;80.59
4273;BME280;63887;53.656;9.810;2023-05-19T00:36:52;102857.50;;;7.34;77.14
4273;BME280;63887;53.656;9.810;2023-05-19T00:39:18;102852.41;;;7.17;76.57
4273;BME280;63887;53.656;9.810;2023-05-19T00:41:44;102849.91;;;6.99;78.04
4273;BME280;63887;53.656;9.810;2023-05-19T00:44:10;102854.38;;;6.79;79.59
4273;BME280;63887;53.656;9.810;2023-05-19T00:46:37;102851.91;;;6.50;80.99
4273;BME280;63887;53.656;9.810;2023-05-19T00:49:03;102851.09;;;6.39;81.82
4273;BME280;63887;53.656;9.810;2023-05-19T00:51:30;102851.22;;;6.11;82.63
4273;BME280;63887;53.656;9.810;2023-05-19T00:53:57;102851.19;;;6.13;82.08
4273;BME280;63887;53.656;9.810;2023-05-19T00:56:23;102852.03;;;6.18;83.27
4273;BME280;63887;53.656;9.810;2023-05-19T00:58:50;102845.06;;;6.24;82.23
4273;BME280;63887;53.656;9.810;2023-05-19T01:01:16;102845.97;;;6.19;83.38
4273;BME280;63887;53.656;9.810;2023-05-19T01:03:45;102847.69;;;6.26;82.16
4273;BME280;63887;53.656;9.810;2023-05-19T01:06:12;102843.38;;;6.13;82.50
4273;BME280;63887;53.656;9.810;2023-05-19T01:08:40;102847.63;;;6.41;80.62
4273;BME280;63887;53.656;9.810;2023-05-19T01:11:07;102849.41;;;6.27;80.59
4273;BME280;63887;53.656;9.810;2023-05-19T01:13:34;102853.72;;;6.34;81.30
4273;BME280;63887;53.656;9.810;2023-05-19T01:16:03;102848.56;;;6.19;82.51
4273;BME280;63887;53.656;9.810;2023-05-19T01:18:35;102851.91;;;6.53;79.47
4273;BME280;63887;53.656;9.810;2023-05-19T01:21:08;102853.66;;;6.49;80.11
4273;BME280;63887;53.656;9.810;2023-05-19T01:23:43;102853.66;;;6.51;79.66
4273;BME280;63887;53.656;9.810;2023-05-19T01:26:16;102852.00;;;6.33;80.53
4273;BME280;63887;53.656;9.810;2023-05-19T01:28:57;102852.00;;;6.24;81.82
4273;BME280;63887;53.656;9.810;2023-05-19T01:31:29;102848.53;;;6.30;81.55
4273;BME280;63887;53.656;9.810;2023-05-19T01:33:56;102856.31;;;6.42;81.62
4273;BME280;63887;53.656;9.810;2023-05-19T01:36:23;102850.25;;;6.34;81.60
4273;BME280;63887;53.656;9.810;2023-05-19T01:38:51;102850.88;;;6.81;78.51
4273;BME280;63887;53.656;9.810;2023-05-19T01:41:19;102851.03;;;6.57;80.16
4273;BME280;63887;53.656;9.810;2023-05-19T01:43:47;102851.09;;;6.37;80.10
4273;BME280;63887;53.656;9.810;2023-05-19T01:46:14;102854.59;;;6.33;80.72
4273;BME280;63887;53.656;9.810;2023-05-19T01:48:42;102858.81;;;6.63;80.48
4273;BME280;63887;53.656;9.810;2023-05-19T01:51:08;102861.38;;;6.69;79.28
4273;BME280;63887;53.656;9.810;2023-05-19T01:53:34;102863.31;;;6.20;82.17
4273;BME280;63887;53.656;9.810;2023-05-19T01:56:01;102869.44;;;6.13;82.05
4273;BME280;63887;53.656;9.810;2023-05-19T01:58:30;102873.78;;;5.94;83.21
4273;BME280;63887;53.656;9.810;2023-05-19T02:00:58;102872.94;;;5.98;83.42
4273;BME280;63887;53.656;9.810;2023-05-19T02:03:34;102866.84;;;6.13;82.82
4273;BME280;63887;53.656;9.810;2023-05-19T02:06:07;102873.63;;;6.52;80.88
4273;BME280;63887;53.656;9.810;2023-05-19T02:08:40;102855.38;;;6.56;79.83
4273;BME280;63887;53.656;9.810;2023-05-19T02:11:10;102870.97;;;6.67;79.39
4273;BME280;63887;53.656;9.810;2023-05-19T02:13:40;102870.34;;;6.00;81.98
4273;BME280;63887;53.656;9.810;2023-05-19T02:16:08;102868.59;;;5.97;82.63
4273;BME280;63887;53.656;9.810;2023-05-19T02:18:35;102865.09;;;5.78;83.57
4273;BME280;63887;53.656;9.810;2023-05-19T02:21:02;102862.53;;;5.67;84.12
4273;BME280;63887;53.656;9.810;2023-05-19T02:23:29;102862.50;;;5.77;83.31
4273;BME280;63887;53.656;9.810;2023-05-19T02:25:56;102856.47;;;5.65;84.83
4273;BME280;63887;53.656;9.810;2023-05-19T02:28:22;102851.25;;;5.65;85.21
4273;BME280;63887;53.656;9.810;2023-05-19T02:30:52;102855.56;;;5.48;85.50
4273;BME280;63887;53.656;9.810;2023-05-19T02:33:18;102859.03;;;5.50;85.94
4273;BME280;63887;53.656;9.810;2023-05-19T02:35:46;102857.31;;;5.42;86.42
4273;BME280;63887;53.656;9.810;2023-05-19T02:38:13;102860.78;;;5.42;85.51
4273;BME280;63887;53.656;9.810;2023-05-19T02:40:40;102851.25;;;5.44;86.00
4273;BME280;63887;53.656;9.810;2023-05-19T02:43:06;102851.25;;;5.44;86.28
4273;BME280;63887;53.656;9.810;2023-05-19T02:45:33;102861.66;;;5.44;85.23
4273;BME280;63887;53.656;9.810;2023-05-19T02:47:59;102865.13;;;5.38;86.47
4273;BME280;63887;53.656;9.810;2023-05-19T02:50:25;102861.66;;;5.39;86.49
4273;BME280;63887;53.656;9.810;2023-05-19T02:52:51;102850.38;;;5.37;86.62
4273;BME280;63887;53.656;9.810;2023-05-19T02:55:18;102854.72;;;5.72;85.38
4273;BME280;63887;53.656;9.810;2023-05-19T02:57:46;102852.06;;;6.09;83.26
4273;BME280;63887;53.656;9.810;2023-05-19T03:00:12;102853.69;;;6.45;81.62
4273;BME280;63887;53.656;9.810;2023-05-19T03:02:39;102853.84;;;5.91;82.97
4273;BME280;63887;53.656;9.810;2023-05-19T03:05:05;102851.22;;;5.64;85.24
4273;BME280;63887;53.656;9.810;2023-05-19T03:07:32;102852.97;;;5.48;86.37
4273;BME280;63887;53.656;9.810;2023-05-19T03:09:58;102846.91;;;5.54;86.68
4273;BME280;63887;53.656;9.810;2023-05-19T03:12:27;102849.53;;;5.38;86.38
4273;BME280;63887;53.656;9.810;2023-05-19T03:14:55;102842.56;;;5.56;85.99
4273;BME280;63887;53.656;9.810;2023-05-19T03:17:21;102842.56;;;5.62;85.43
4273;BME280;63887;53.656;9.810;2023-05-19T03:19:47;102840.84;;;5.43;86.01
4273;BME280;63887;53.656;9.810;2023-05-19T03:22:15;102846.03;;;5.46;86.49
4273;BME280;63887;53.656;9.810;2023-05-19T03:24:42;102833.88;;;5.61;86.17
4273;BME280;63887;53.656;9.810;2023-05-19T03:27:09;102833.88;;;5.77;85.45
4273;BME280;63887;53.656;9.810;2023-05-19T03:29:36;102835.59;;;5.73;86.07
4273;BME280;63887;53.656;9.810;2023-05-19T03:32:03;102832.16;;;5.66;86.00
4273;BME280;63887;53.656;9.810;2023-05-19T03:34:30;102834.72;;;6.02;84.44
4273;BME280;63887;53.656;9.810;2023-05-19T03:36:57;102839.06;;;5.98;85.37
4273;BME280;63887;53.656;9.810;2023-05-19T03:39:24;102836.41;;;6.25;83.56
4273;BME280;63887;53.656;9.810;2023-05-19T03:41:50;102834.72;;;5.89;86.15
4273;BME280;63887;53.656;9.810;2023-05-19T03:44:16;102832.88;;;6.34;83.30
4273;BME280;63887;53.656;9.810;2023-05-19T03:46:42;102838.22;;;5.99;84.80
4273;BME280;63887;53.656;9.810;2023-05-19T03:49:10;102836.44;;;6.03;84.14
4273;BME280;63887;53.656;9.810;2023-05-19T03:51:37;102841.66;;;6.06;84.22
4273;BME280;63887;53.656;9.810;2023-05-19T03:54:04;102838.94;;;6.38;82.67
4273;BME280;63887;53.656;9.810;2023-05-19T03:56:30;102843.25;;;6.46;81.86
4273;BME280;63887;53.656;9.810;2023-05-19T03:58:57;102847.72;;;6.06;84.38
4273;BME280;63887;53.656;9.810;2023-05-19T04:01:23;102843.31;;;6.30;83.54
4273;BME280;63887;53.656;9.810;2023-05-19T04:03:49;102852.97;;;6.02;85.89
4273;BME280;63887;53.656;9.810;2023-05-19T04:06:17;102848.59;;;6.08;85.41
4273;BME280;63887;53.656;9.810;2023-05-19T04:08:44;102852.06;;;6.15;85.27
4273;BME280;63887;53.656;9.810;2023-05-19T04:11:10;102852.75;;;6.61;84.08
4273;BME280;63887;53.656;9.810;2023-05-19T04:13:36;102854.59;;;6.32;82.96
4273;BME280;63887;53.656;9.810;2023-05-19T04:16:03;102851.94;;;6.47;84.32
4273;BME280;63887;53.656;9.810;2023-05-19T04:18:29;102854.44;;;6.73;82.21
4273;BME280;63887;53.656;9.810;2023-05-19T04:20:56;102851.75;;;6.80;81.81
4273;BME280;63887;53.656;9.810;2023-05-19T04:23:23;102855.22;;;6.82;82.63
4273;BME280;63887;53.656;9.810;2023-05-19T04:25:50;102852.81;;;6.46;83.46
4273;BME280;63887;53.656;9.810;2023-05-19T04:28:18;102859.59;;;6.80;82.38
4273;BME280;63887;53.656;9.810;2023-05-19T04:30:44;102853.38;;;7.03;80.66
4273;BME280;63887;53.656;9.810;2023-05-19T04:33:11;102854.97;;;7.25;80.87
4273;BME280;63887;53.656;9.810;2023-05-19T04:35:37;102849.78;;;7.21;80.92
4273;BME280;63887;53.656;9.810;2023-05-19T04:38:04;102856.09;;;6.89;82.50
4273;BME280;63887;53.656;9.810;2023-05-19T04:40:32;102854.06;;;7.31;81.30
4273;BME280;63887;53.656;9.810;2023-05-19T04:42:58;102860.13;;;7.34;81.18
4273;BME280;63887;53.656;9.810;2023-05-19T04:45:25;102855.91;;;7.16;81.35
4273;BME280;63887;53.656;9.810;2023-05-19T04:47:52;102857.63;;;7.19;82.07
4273;BME280;63887;53.656;9.810;2023-05-19T04:50:21;102854.88;;;7.36;82.22
4273;BME280;63887;53.656;9.810;2023-05-19T04:52:48;102851.63;;;7.06;82.21
4273;BME280;63887;53.656;9.810;2023-05-19T04:55:15;102855.03;;;7.13;82.76
4273;BME280;63887;53.656;9.810;2023-05-19T04:57:42;102853.97;;;7.40;82.57
4273;BME280;63887;53.656;9.810;2023-05-19T05:00:09;102855.41;;;7.73;80.74
4273;BME280;63887;53.656;9.810;2023-05-19T05:02:37;102856.41;;;7.63;80.85
4273;BME280;63887;53.656;9.810;2023-05-19T05:05:04;102859.53;;;7.98;79.53
4273;BME280;63887;53.656;9.810;2023-05-19T05:07:30;102862.53;;;7.57;81.76
4273;BME280;63887;53.656;9.810;2023-05-19T05:09:57;102864.16;;;7.69;81.85
4273;BME280;63887;53.656;9.810;2023-05-19T05:12:23;102863.03;;;7.96;80.77
4273;BME280;63887;53.656;9.810;2023-05-19T05:14:51;102858.13;;;7.65;82.13
4273;BME280;63887;53.656;9.810;2023-05-19T05:17:18;102860.63;;;7.76;82.47
4273;BME280;63887;53.656;9.810;2023-05-19T05:19:44;102855.44;;;7.71;83.00
4273;BME280;63887;53.656;9.810;2023-05-19T05:22:12;102858.28;;;8.36;80.00
4273;BME280;63887;53.656;9.810;2023-05-19T05:24:39;102856.06;;;8.73;78.11
4273;BME280;63887;53.656;9.810;2023-05-19T05:27:05;102848.84;;;8.90;77.14
4273;BME280;63887;53.656;9.810;2023-05-19T05:29:32;102855.94;;;8.82;76.26
4273;BME280;63887;53.656;9.810;2023-05-19T05:31:59;102848.53;;;8.47;79.03
4273;BME280;63887;53.656;9.810;2023-05-19T05:34:26;102855.88;;;8.87;76.25
4273;BME280;63887;53.656;9.810;2023-05-19T05:36:52;102852.09;;;9.06;76.11
4273;BME280;63887;53.656;9.810;2023-05-19T05:39:18;102855.13;;;8.79;77.34
4273;BME280;63887;53.656;9.810;2023-05-19T05:41:44;102857.56;;;8.89;77.07
4273;BME280;63887;53.656;9.810;2023-05-19T05:44:11;102860.81;;;9.05;75.61
4273;BME280;63887;53.656;9.810;2023-05-19T05:46:37;102859.75;;;9.18;75.95
4273;BME280;63887;53.656;9.810;2023-05-19T05:49:05;102861.91;;;9.47;75.51
4273;BME280;63887;53.656;9.810;2023-05-19T05:51:32;102860.75;;;9.65;74.95
4273;BME280;63887;53.656;9.810;2023-05-19T05:53:59;102852.22;;;10.02;72.87
4273;BME280;63887;53.656;9.810;2023-05-19T05:56:27;102863.22;;;10.22;71.50
4273;BME280;63887;53.656;9.810;2023-05-19T05:58:53;102867.91;;;10.05;72.46
4273;BME280;63887;53.656;9.810;2023-05-19T06:01:19;102865.94;;;10.16;71.70
4273;BME280;63887;53.656;9.810;2023-05-19T06:03:46;102871.88;;;10.26;71.39
4273;BME280;63887;53.656;9.810;2023-05-19T06:06:13;102860.22;;;10.40;71.46
4273;BME280;63887;53.656;9.810;2023-05-19T06:08:39;102872.75;;;10.68;69.69
4273;BME280;63887;53.656;9.810;2023-05-19T06:11:06;102860.06;;;10.48;70.41
4273;BME280;63887;53.656;9.810;2023-05-19T06:13:33;102864.91;;;10.68;69.80
4273;BME280;63887;53.656;9.810;2023-05-19T06:15:59;102865.72;;;10.70;70.04
4273;BME280;63887;53.656;9.810;2023-05-19T06:18:26;102862.72;;;10.88;70.06
4273;BME280;63887;53.656;9.810;2023-05-19T06:20:52;102858.69;;;11.11;68.03
4273;BME280;63887;53.656;9.810;2023-05-19T06:23:20;102858.56;;;11.15;68.25
4273;BME280;63887;53.656;9.810;2023-05-19T06:25:46;102859.19;;;10.89;69.01
4273;BME280;63887;53.656;9.810;2023-05-19T06:28:13;102871.78;;;11.12;67.38
4273;BME280;63887;53.656;9.810;2023-05-19T06:30:39;102860.50;;;11.09;68.12
4273;BME280;63887;53.656;9.810;2023-05-19T06:33:06;102864.09;;;11.76;65.01
4273;BME280;63887;53.656;9.810;2023-05-19T06:35:32;102857.09;;;12.40;63.72
4273;BME280;63887;53.656;9.810;2023-05-19T06:37:58;102858.41;;;13.40;60.17
4273;BME280;63887;53.656;9.810;2023-05-19T06:40:26;102861.63;;;13.75;58.03
4273;BME280;63887;53.656;9.810;2023-05-19T06:42:52;102856.66;;;14.15;57.06
4273;BME280;63887;53.656;9.810;2023-05-19T06:45:19;102852.56;;;14.55;54.99
4273;BME280;63887;53.656;9.810;2023-05-19T06:47:46;102859.06;;;15.13;53.30
4273;BME280;63887;53.656;9.810;2023-05-19T06:50:12;102861.50;;;15.62;52.50
4273;BME280;63887;53.656;9.810;2023-05-19T06:52:39;102849.19;;;14.75;54.16
4273;BME280;63887;53.656;9.810;2023-05-19T06:55:05;102850.91;;;15.19;53.15
4273;BME280;63887;53.656;9.810;2023-05-19T06:57:33;102859.47;;;15.68;51.43
4273;BME280;63887;53.656;9.810;2023-05-19T07:00:00;102851.47;;;17.05;49.09
4273;BME280;63887;53.656;9.810;2023-05-19T07:02:26;102862.41;;;16.98;47.29
4273;BME280;63887;53.656;9.810;2023-05-19T07:04:52;102853.09;;;17.61;45.64
4273;BME280;63887;53.656;9.810;2023-05-19T07:07:18;102860.13;;;17.27;45.99
4273;BME280;63887;53.656;9.810;2023-05-19T07:09:45;102861.91;;;17.26;47.77
4273;BME280;63887;53.656;9.810;2023-05-19T07:12:11;102865.19;;;16.77;47.98
4273;BME280;63887;53.656;9.810;2023-05-19T07:14:39;102857.03;;;18.86;43.13
4273;BME280;63887;53.656;9.810;2023-05-19T07:17:05;102861.09;;;19.39;40.72
4273;BME280;63887;53.656;9.810;2023-05-19T07:19:31;102849.13;;;19.76;40.73
4273;BME280;63887;53.656;9.810;2023-05-19T07:21:57;102856.56;;;19.71;39.64
4273;BME280;63887;53.656;9.810;2023-05-19T07:24:24;102856.47;;;19.72;42.30
4273;BME280;63887;53.656;9.810;2023-05-19T07:26:51;102857.53;;;19.54;40.21
4273;BME280;63887;53.656;9.810;2023-05-19T07:29:17;102857.72;;;18.73;42.26
4273;BME280;63887;53.656;9.810;2023-05-19T07:31:45;102857.25;;;17.83;44.46
4273;BME280;63887;53.656;9.810;2023-05-19T07:34:11;102853.72;;;16.95;47.09
4273;BME280;63887;53.656;9.810;2023-05-19T07:36:38;102859.06;;;15.98;49.68
4273;BME280;63887;53.656;9.810;2023-05-19T07:39:04;102860.66;;;16.41;48.84
4273;BME280;63887;53.656;9.810;2023-05-19T07:41:30;102854.59;;;16.19;49.21
4273;BME280;63887;53.656;9.810;2023-05-19T07:43:57;102866.06;;;15.99;49.62
4273;BME280;63887;53.656;9.810;2023-05-19T07:46:23;102856.06;;;16.26;49.25
4273;BME280;63887;53.656;9.810;2023-05-19T07:48:51;102859.31;;;15.92;50.05
4273;BME280;63887;53.656;9.810;2023-05-19T07:51:17;102859.16;;;15.54;50.20
4273;BME280;63887;53.656;9.810;2023-05-19T07:53:43;102854.03;;;15.29;52.10
4273;BME280;63887;53.656;9.810;2023-05-19T07:56:11;102851.28;;;15.10;53.38
4273;BME280;63887;53.656;9.810;2023-05-19T07:58:37;102853.22;;;15.49;50.23
4273;BME280;63887;53.656;9.810;2023-05-19T08:01:03;102854.34;;;15.21;51.81
4273;BME280;63887;53.656;9.810;2023-05-19T08:03:29;102850.78;;;15.23;52.19
4273;BME280;63887;53.656;9.810;2023-05-19T08:05:57;102851.91;;;15.59;51.21
4273;BME280;63887;53.656;9.810;2023-05-19T08:08:23;102857.22;;;15.37;51.21
4273;BME280;63887;53.656;9.810;2023-05-19T08:10:50;102853.53;;;15.63;51.49
4273;BME280;63887;53.656;9.810;2023-05-19T08:13:16;102852.59;;;15.85;49.90
4273;BME280;63887;53.656;9.810;2023-05-19T08:15:43;102855.16;;;15.66;50.38
4273;BME280;63887;53.656;9.810;2023-05-19T08:18:09;102846.94;;;15.30;51.43
4273;BME280;63887;53.656;9.810;2023-05-19T08:20:35;102850.28;;;15.55;51.00
4273;BME280;63887;53.656;9.810;2023-05-19T08:23:03;102847.44;;;15.17;51.33
4273;BME280;63887;53.656;9.810;2023-05-19T08:25:29;102840.28;;;15.63;51.35
4273;BME280;63887;53.656;9.810;2023-05-19T08:27:56;102836.84;;;15.61;51.72
4273;BME280;63887;53.656;9.810;2023-05-19T08:30:22;102838.09;;;15.73;51.09
4273;BME280;63887;53.656;9.810;2023-05-19T08:32:48;102837.97;;;15.76;52.18
4273;BME280;63887;53.656;9.810;2023-05-19T08:35:15;102829.94;;;15.98;55.58
4273;BME280;63887;53.656;9.810;2023-05-19T08:37:41;102836.38;;;16.31;51.48
4273;BME280;63887;53.656;9.810;2023-05-19T08:40:09;102829.06;;;16.18;49.81
4273;BME280;63887;53.656;9.810;2023-05-19T08:42:37;102820.97;;;16.21;51.91
4273;BME280;63887;53.656;9.810;2023-05-19T08:45:03;102817.59;;;16.17;50.17
4273;BME280;63887;53.656;9.810;2023-05-19T08:47:30;102821.03;;;16.19;49.68
4273;BME280;63887;53.656;9.810;2023-05-19T08:49:59;102817.56;;;16.37;48.23
4273;BME280;63887;53.656;9.810;2023-05-19T08:52:31;102814.72;;;16.22;48.09
4273;BME280;63887;53.656;9.810;2023-05-19T08:54:59;102809.59;;;16.19;49.14
4273;BME280;63887;53.656;9.810;2023-05-19T08:57:28;102812.19;;;16.39;48.57
4273;BME280;63887;53.656;9.810;2023-05-19T08:59:54;102806.06;;;16.18;50.28
4273;BME280;63887;53.656;9.810;2023-05-19T09:02:21;102810.50;;;16.18;48.91
4273;BME280;63887;53.656;9.810;2023-05-19T09:04:48;102811.53;;;16.15;49.13
4273;BME280;63887;53.656;9.810;2023-05-19T09:07:14;102806.22;;;16.34;46.99
4273;BME280;63887;53.656;9.810;2023-05-19T09:09:41;102803.50;;;16.17;48.56
4273;BME280;63887;53.656;9.810;2023-05-19T09:12:07;102797.16;;;16.39;47.70
4273;BME280;63887;53.656;9.810;2023-05-19T09:14:35;102796.72;;;16.30;48.44
4273;BME280;63887;53.656;9.810;2023-05-19T09:17:02;102784.13;;;16.54;49.59
4273;BME280;63887;53.656;9.810;2023-05-19T09:19:28;102796.06;;;16.62;46.64
4273;BME280;63887;53.656;9.810;2023-05-19T09:21:57;102794.78;;;16.52;46.96
4273;BME280;63887;53.656;9.810;2023-05-19T09:24:25;102798.78;;;16.61;47.58
4273;BME280;63887;53.656;9.810;2023-05-19T09:26:52;102797.00;;;16.24;49.13
4273;BME280;63887;53.656;9.810;2023-05-19T09:29:20;102795.56;;;16.35;49.17
4273;BME280;63887;53.656;9.810;2023-05-19T09:31:48;102791.91;;;16.19;48.91
4273;BME280;63887;53.656;9.810;2023-05-19T09:34:15;102788.34;;;16.39;47.46
4273;BME280;63887;53.656;9.810;2023-05-19T09:36:42;102798.34;;;16.32;48.37
4273;BME280;63887;53.656;9.810;2023-05-19T09:39:11;102797.09;;;16.22;48.33
4273;BME280;63887;53.656;9.810;2023-05-19T09:41:38;102784.94;;;16.37;47.78
4273;BME280;63887;53.656;9.810;2023-05-19T09:44:04;102780.25;;;16.42;47.35
4273;BME280;63887;53.656;9.810;2023-05-19T09:46:31;102775.38;;;16.33;46.53
4273;BME280;63887;53.656;9.810;2023-05-19T09:49:01;102776.75;;;16.23;47.91
4273;BME280;63887;53.656;9.810;2023-05-19T09:51:33;102782.81;;;16.62;46.56
4273;BME280;63887;53.656;9.810;2023-05-19T09:54:00;102772.25;;;16.44;47.03
4273;BME280;63887;53.656;9.810;2023-05-19T09:56:30;102784.69;;;16.79;45.42
4273;BME280;63887;53.656;9.810;2023-05-19T09:58:57;102773.59;;;16.71;47.07
4273;BME280;63887;53.656;9.810;2023-05-19T10:01:23;102772.91;;;16.66;47.65
4273;BME280;63887;53.656;9.810;2023-05-19T10:03:50;102768.50;;;16.66;48.51
4273;BME280;63887;53.656;9.810;2023-05-19T10:06:18;102771.06;;;16.87;48.19
4273;BME280;63887;53.656;9.810;2023-05-19T10:08:45;102764.34;;;16.80;48.30
4273;BME280;63887;53.656;9.810;2023-05-19T10:11:12;102764.34;;;16.80;46.97
4273;BME280;63887;53.656;9.810;2023-05-19T10:13:39;102766.28;;;16.57;46.70
4273;BME280;63887;53.656;9.810;2023-05-19T10:16:06;102758.50;;;16.73;47.50
4273;BME280;63887;53.656;9.810;2023-05-19T10:18:33;102754.19;;;16.71;47.84
4273;BME280;63887;53.656;9.810;2023-05-19T10:21:00;102755.44;;;16.81;48.34
4273;BME280;63887;53.656;9.810;2023-05-19T10:23:28;102754.47;;;17.01;47.22
4273;BME280;63887;53.656;9.810;2023-05-19T10:25:55;102748.53;;;16.95;46.85
4273;BME280;63887;53.656;9.810;2023-05-19T10:28:22;102740.72;;;16.92;47.12
4273;BME280;63887;53.656;9.810;2023-05-19T10:30:52;102749.19;;;17.01;46.77
4273;BME280;63887;53.656;9.810;2023-05-19T10:33:19;102744.22;;;16.76;46.62
4273;BME280;63887;53.656;9.810;2023-05-19T10:36:01;102750.88;;;16.84;46.51
4273;BME280;63887;53.656;9.810;2023-05-19T10:38:36;102757.56;;;16.74;46.86
4273;BME280;63887;53.656;9.810;2023-05-19T10:41:09;102754.13;;;16.72;46.79
4273;BME280;63887;53.656;9.810;2023-05-19T10:43:38;102757.63;;;16.73;46.00
4273;BME280;63887;53.656;9.810;2023-05-19T10:46:09;102765.69;;;16.88;45.57
4273;BME280;63887;53.656;9.810;2023-05-19T10:48:35;102741.97;;;16.68;47.01
4273;BME280;63887;53.656;9.810;2023-05-19T10:51:02;102753.88;;;16.77;47.60
4273;BME280;63887;53.656;9.810;2023-05-19T10:53:29;102742.13;;;16.63;46.79
4273;BME280;63887;53.656;9.810;2023-05-19T10:55:57;102743.00;;;16.64;48.22
4273;BME280;63887;53.656;9.810;2023-05-19T10:58:36;102744.78;;;16.82;46.81
4273;BME280;63887;53.656;9.810;2023-05-19T11:01:06;102749.22;;;16.63;47.21
4273;BME280;63887;53.656;9.810;2023-05-19T11:03:35;102744.00;;;16.61;46.02
4273;BME280;63887;53.656;9.810;2023-05-19T11:06:18;102745.56;;;16.67;45.85
4273;BME280;63887;53.656;9.810;2023-05-19T11:08:44;102747.13;;;16.52;45.64
4273;BME280;63887;53.656;9.810;2023-05-19T11:11:13;102741.72;;;16.73;45.39
4273;BME280;63887;53.656;9.810;2023-05-19T11:13:39;102738.25;;;16.53;44.50
4273;BME280;63887;53.656;9.810;2023-05-19T11:16:06;102727.09;;;16.64;46.78
4273;BME280;63887;53.656;9.810;2023-05-19T11:18:33;102730.19;;;16.74;46.22
4273;BME280;63887;53.656;9.810;2023-05-19T11:20:59;102731.22;;;16.71;47.06
4273;BME280;63887;53.656;9.810;2023-05-19T11:23:27;102732.53;;;16.80;44.80
4273;BME280;63887;53.656;9.810;2023-05-19T11:25:58;102725.44;;;16.80;44.87
4273;BME280;63887;53.656;9.810;2023-05-19T11:28:28;102714.28;;;16.74;44.51
4273;BME280;63887;53.656;9.810;2023-05-19T11:30:54;102716.72;;;16.78;43.24
4273;BME280;63887;53.656;9.810;2023-05-19T11:33:21;102715.50;;;16.66;44.47
4273;BME280;63887;53.656;9.810;2023-05-19T11:35:51;102715.56;;;17.01;44.95
4273;BME280;63887;53.656;9.810;2023-05-19T11:38:18;102720.38;;;17.10;44.84
4273;BME280;63887;53.656;9.810;2023-05-19T11:40:44;102708.72;;;16.97;45.96
4273;BME280;63887;53.656;9.810;2023-05-19T11:43:11;102715.66;;;17.17;43.82
4273;BME280;63887;53.656;9.810;2023-05-19T11:45:39;102702.84;;;17.42;43.31
4273;BME280;63887;53.656;9.810;2023-05-19T11:48:05;102701.91;;;17.26;41.90
4273;BME280;63887;53.656;9.810;2023-05-19T11:50:35;102705.66;;;17.22;43.12
4273;BME280;63887;53.656;9.810;2023-05-19T11:53:02;102708.38;;;17.03;43.05
4273;BME280;63887;53.656;9.810;2023-05-19T11:55:28;102708.13;;;17.25;42.91
4273;BME280;63887;53.656;9.810;2023-05-19T11:57:55;102708.31;;;17.22;43.30
4273;BME280;63887;53.656;9.810;2023-05-19T12:00:22;102709.56;;;17.32;42.45
4273;BME280;63887;53.656;9.810;2023-05-19T12:02:50;102708.63;;;16.98;42.02
4273;BME280;63887;53.656;9.810;2023-05-19T12:05:17;102702.84;;;17.08;42.74
4273;BME280;63887;53.656;9.810;2023-05-19T12:07:43;102711.13;;;17.19;42.72
4273;BME280;63887;53.656;9.810;2023-05-19T12:10:11;102702.06;;;17.23;41.32
4273;BME280;63887;53.656;9.810;2023-05-19T12:12:37;102703.13;;;17.36;40.52
4273;BME280;63887;53.656;9.810;2023-05-19T12:15:04;102703.63;;;17.27;40.25
4273;BME280;63887;53.656;9.810;2023-05-19T12:17:31;102699.53;;;17.37;40.91
4273;BME280;63887;53.656;9.810;2023-05-19T12:19:58;102696.16;;;17.18;41.25
4273;BME280;63887;53.656;9.810;2023-05-19T12:22:25;102692.22;;;17.42;40.81
4273;BME280;63887;53.656;9.810;2023-05-19T12:24:52;102689.72;;;17.39;41.27
4273;BME280;63887;53.656;9.810;2023-05-19T12:27:19;102692.31;;;17.74;40.54
4273;BME280;63887;53.656;9.810;2023-05-19T12:29:48;102697.88;;;17.85;40.18
4273;BME280;63887;53.656;9.810;2023-05-19T12:32:14;102689.53;;;17.59;39.07
4273;BME280;63887;53.656;9.810;2023-05-19T12:34:40;102689.25;;;17.81;38.97
4273;BME280;63887;53.656;9.810;2023-05-19T12:37:09;102682.03;;;17.83;39.38
4273;BME280;63887;53.656;9.810;2023-05-19T12:39:35;102680.69;;;17.76;40.08
4273;BME280;63887;53.656;9.810;2023-05-19T12:42:02;102678.22;;;17.89;40.94
4273;BME280;63887;53.656;9.810;2023-05-19T12:44:28;102673.69;;;17.91;38.38
4273;BME280;63887;53.656;9.810;2023-05-19T12:46:56;102672.25;;;18.01;38.55
4273;BME280;63887;53.656;9.810;2023-05-19T12:49:22;102663.47;;;17.83;39.36
4273;BME280;63887;53.656;9.810;2023-05-19T12:51:50;102655.78;;;17.95;38.30
4273;BME280;63887;53.656;9.810;2023-05-19T12:54:18;102658.59;;;18.07;39.97
4273;BME280;63887;53.656;9.810;2023-05-19T12:56:48;102664.59;;;17.79;39.33
4273;BME280;63887;53.656;9.810;2023-05-19T12:59:19;102672.97;;;17.54;39.74
4273;BME280;63887;53.656;9.810;2023-05-19T13:01:53;102658.91;;;17.37;40.34
4273;BME280;63887;53.656;9.810;2023-05-19T13:04:20;102667.00;;;17.67;38.93